createdAt,value
2019-03-31T00:00:30.846Z,34.00
2019-03-31T00:03:00.710Z,31.93
2019-03-31T00:05:30.624Z,29.67
2019-03-31T00:08:00.460Z,31.62
2019-03-31T00:10:30.333Z,30.70
2019-03-31T00:13:01.192Z,35.00
2019-03-31T00:15:31.158Z,36.90
2019-03-31T00:18:00.946Z,33.90
2019-03-31T00:20:30.931Z,32.48
2019-03-31T00:23:00.842Z,32.17
2019-03-31T00:25:30.622Z,29.95
2019-03-31T00:28:00.671Z,30.57
2019-03-31T00:30:30.459Z,34.18
2019-03-31T00:33:00.366Z,31.77
2019-03-31T00:35:32.363Z,30.82
2019-03-31T00:38:03.524Z,28.12
2019-03-31T00:40:33.327Z,32.78
2019-03-31T00:43:42.578Z,30.80
2019-03-31T00:46:51.827Z,29.32
2019-03-31T00:50:08.340Z,32.85
2019-03-31T00:52:50.319Z,34.43
2019-03-31T00:59:29.996Z,32.98
2019-03-31T01:06:00.735Z,33.85
2019-03-31T01:08:49.967Z,32.55
2019-03-31T01:11:31.083Z,38.73
2019-03-31T01:14:13.908Z,31.85
2019-03-31T01:17:40.715Z,32.90
2019-03-31T01:20:45.536Z,38.13
2019-03-31T01:27:22.750Z,34.23
2019-03-31T01:30:10.682Z,31.68
2019-03-31T01:33:39.974Z,31.35
2019-03-31T01:36:32.205Z,32.55
2019-03-31T01:45:50.005Z,37.42
2019-03-31T01:48:28.610Z,31.97
2019-03-31T01:51:03.264Z,49.15
2019-03-31T01:53:37.605Z,31.80
2019-03-31T01:56:11.306Z,31.05
2019-03-31T01:58:44.424Z,35.20
2019-03-31T02:01:19.180Z,41.60
2019-03-31T02:03:53.077Z,35.85
2019-03-31T02:06:27.693Z,32.42
2019-03-31T02:09:02.944Z,34.18
2019-03-31T02:11:35.072Z,37.23
2019-03-31T02:14:12.803Z,33.30
2019-03-31T02:16:46.305Z,34.73
2019-03-31T02:19:22.643Z,29.90
2019-03-31T02:21:54.202Z,39.05
2019-03-31T02:24:31.114Z,29.90
2019-03-31T02:27:03.277Z,33.78
2019-03-31T02:29:53.973Z,33.80
2019-03-31T02:32:27.026Z,34.83
2019-03-31T02:34:58.946Z,36.58
2019-03-31T02:37:32.937Z,35.35
2019-03-31T02:40:07.693Z,33.42
2019-03-31T02:42:44.193Z,43.40
2019-03-31T02:45:15.776Z,34.43
2019-03-31T02:47:50.060Z,37.13
2019-03-31T02:51:08.871Z,34.95
2019-03-31T02:53:40.754Z,33.25
2019-03-31T02:56:13.582Z,36.35
2019-03-31T02:58:56.562Z,31.45
2019-03-31T03:01:30.737Z,38.95
2019-03-31T03:04:15.748Z,37.85
2019-03-31T03:06:48.674Z,33.98
2019-03-31T03:09:24.523Z,31.97
2019-03-31T03:11:56.277Z,33.18
2019-03-31T03:14:31.037Z,29.70
2019-03-31T03:17:03.613Z,37.73
2019-03-31T03:19:52.790Z,33.30
2019-03-31T03:22:25.228Z,35.98
2019-03-31T03:25:03.001Z,33.92
2019-03-31T03:27:35.701Z,35.25
2019-03-31T03:30:09.530Z,36.88
2019-03-31T03:33:10.916Z,33.10
2019-03-31T03:35:17.231Z,38.35
2019-03-31T03:37:49.728Z,32.90
2019-03-31T03:40:23.984Z,35.13
2019-03-31T03:43:06.193Z,33.02
2019-03-31T03:45:40.275Z,37.93
2019-03-31T03:48:21.195Z,36.03
2019-03-31T03:50:57.679Z,37.28
2019-03-31T03:53:30.148Z,39.13
2019-03-31T03:56:02.460Z,37.20
2019-03-31T03:58:42.157Z,41.48
2019-03-31T04:01:20.740Z,41.88
2019-03-31T04:03:55.339Z,38.35
2019-03-31T04:06:29.831Z,35.78
2019-03-31T04:09:22.043Z,35.13
2019-03-31T04:11:58.080Z,35.70
2019-03-31T04:14:48.667Z,39.18
2019-03-31T04:17:24.675Z,38.85
2019-03-31T04:20:07.940Z,39.30
2019-03-31T04:22:59.069Z,38.00
2019-03-31T04:25:42.261Z,35.20
2019-03-31T04:28:15.319Z,37.88
2019-03-31T04:30:45.106Z,37.28
2019-03-31T04:33:14.833Z,34.55
2019-03-31T04:35:44.656Z,34.25
2019-03-31T04:38:14.430Z,38.95
2019-03-31T04:40:44.219Z,39.13
2019-03-31T04:43:14.043Z,38.00
2019-03-31T04:45:43.821Z,34.95
2019-03-31T04:48:13.529Z,38.00
2019-03-31T04:50:43.376Z,37.75
2019-03-31T04:53:13.293Z,36.35
2019-03-31T04:55:43.072Z,36.50
2019-03-31T04:58:12.904Z,37.38
2019-03-31T05:00:42.775Z,41.60
2019-03-31T05:03:12.538Z,37.88
2019-03-31T05:05:42.353Z,45.88
2019-03-31T05:08:13.287Z,39.23
2019-03-31T05:10:43.130Z,38.88
2019-03-31T05:13:12.939Z,42.90
2019-03-31T05:15:42.748Z,43.85
2019-03-31T05:18:12.515Z,38.45
2019-03-31T05:20:42.472Z,36.77
2019-03-31T05:23:12.191Z,36.55
2019-03-31T05:25:42.300Z,36.98
2019-03-31T05:28:12.188Z,38.70
2019-03-31T05:30:41.950Z,39.92
2019-03-31T05:33:11.875Z,42.62
2019-03-31T05:35:41.697Z,40.15
2019-03-31T05:38:11.510Z,36.05
2019-03-31T05:40:41.335Z,38.15
2019-03-31T05:43:11.238Z,45.30
2019-03-31T05:45:41.007Z,40.30
2019-03-31T05:48:11.065Z,39.20
2019-03-31T05:50:41.995Z,39.25
2019-03-31T05:53:11.986Z,44.88
2019-03-31T05:55:41.856Z,43.13
2019-03-31T05:58:11.643Z,36.48
2019-03-31T06:00:45.256Z,36.88
2019-03-31T06:03:15.034Z,41.20
2019-03-31T06:05:44.849Z,36.00
2019-03-31T06:08:14.630Z,36.13
2019-03-31T06:10:45.454Z,36.30
2019-03-31T06:13:15.348Z,41.88
2019-03-31T06:15:45.291Z,41.50
2019-03-31T06:18:15.141Z,36.60
2019-03-31T06:20:45.076Z,37.80
2019-03-31T06:23:14.994Z,47.13
2019-03-31T06:25:44.915Z,40.23
2019-03-31T06:28:14.765Z,34.15
2019-03-31T06:30:44.562Z,34.63
2019-03-31T06:33:14.310Z,32.55
2019-03-31T06:35:44.037Z,37.23
2019-03-31T06:38:13.795Z,31.65
2019-03-31T06:40:45.210Z,37.05
2019-03-31T06:43:14.998Z,35.98
2019-03-31T06:45:44.779Z,33.35
2019-03-31T06:48:14.622Z,34.23
2019-03-31T06:50:45.530Z,33.85
2019-03-31T06:53:15.361Z,32.35
2019-03-31T06:55:45.114Z,34.63
2019-03-31T06:58:14.954Z,35.48
2019-03-31T07:00:44.786Z,33.65
2019-03-31T07:03:14.560Z,38.23
2019-03-31T07:05:44.394Z,34.15
2019-03-31T07:08:14.164Z,32.65
2019-03-31T07:10:43.970Z,33.60
2019-03-31T07:13:13.806Z,36.93
2019-03-31T07:15:43.602Z,32.13
2019-03-31T07:18:15.877Z,30.88
2019-03-31T07:20:44.758Z,36.10
2019-03-31T07:23:14.448Z,33.80
2019-03-31T07:25:44.666Z,32.58
2019-03-31T07:29:05.708Z,32.83
2019-03-31T07:31:33.268Z,33.20
2019-03-31T07:34:07.721Z,35.05
2019-03-31T07:36:46.013Z,35.17
2019-03-31T07:39:45.949Z,34.75
2019-03-31T07:42:25.114Z,36.38
2019-03-31T07:45:13.232Z,35.40
2019-03-31T07:48:08.945Z,36.38
2019-03-31T07:50:40.000Z,35.95
2019-03-31T07:53:10.318Z,38.50
2019-03-31T07:55:43.782Z,41.05
2019-03-31T07:58:15.095Z,40.70
2019-03-31T08:00:46.399Z,41.05
2019-03-31T08:03:17.077Z,40.40
2019-03-31T08:05:49.504Z,38.50
2019-03-31T08:08:20.693Z,42.58
2019-03-31T08:10:50.695Z,42.10
2019-03-31T08:13:21.926Z,42.93
2019-03-31T08:15:54.217Z,45.55
2019-03-31T08:18:25.404Z,42.35
2019-03-31T08:20:57.752Z,44.60
2019-03-31T08:23:28.453Z,44.83
2019-03-31T08:26:20.029Z,43.98
2019-03-31T08:28:52.375Z,44.42
2019-03-31T08:31:22.611Z,43.20
2019-03-31T08:34:49.155Z,47.53
2019-03-31T08:37:19.766Z,49.23
2019-03-31T08:40:12.906Z,42.58
2019-03-31T08:42:43.416Z,47.85
2019-03-31T08:51:37.585Z,51.45
2019-03-31T08:54:07.910Z,50.20
2019-03-31T08:57:04.265Z,47.03
2019-03-31T08:59:35.976Z,50.80
2019-03-31T09:02:35.490Z,53.28
2019-03-31T09:05:09.107Z,42.73
2019-03-31T09:07:41.670Z,47.20
2019-03-31T09:10:11.098Z,44.75
2019-03-31T09:38:32.139Z,50.52
2019-03-31T09:56:41.737Z,48.08
2019-03-31T10:30:05.723Z,55.70
2019-03-31T10:32:37.743Z,64.42
2019-03-31T10:35:39.494Z,59.40
2019-03-31T10:38:10.506Z,55.83
2019-03-31T10:40:41.703Z,58.02
2019-03-31T10:43:13.904Z,63.65
2019-03-31T10:45:45.167Z,58.13
2019-03-31T10:48:27.498Z,70.32
2019-03-31T10:58:41.414Z,57.05
2019-03-31T11:01:11.190Z,60.48
2019-03-31T11:03:40.941Z,61.08
2019-03-31T11:06:10.826Z,62.23
2019-03-31T11:08:41.525Z,59.08
2019-03-31T11:11:11.619Z,55.92
2019-03-31T11:13:41.387Z,62.93
2019-03-31T11:16:12.552Z,55.63
2019-03-31T11:18:42.321Z,57.55
2019-03-31T11:21:19.476Z,52.43
2019-03-31T11:23:49.296Z,63.25
2019-03-31T11:26:22.567Z,60.58
2019-03-31T11:29:13.197Z,56.42
2019-03-31T11:31:43.721Z,54.95
2019-03-31T11:34:13.512Z,61.45
2019-03-31T11:36:43.369Z,60.43
2019-03-31T11:39:16.147Z,60.00
2019-03-31T11:41:44.656Z,61.20
2019-03-31T11:44:32.297Z,60.52
2019-03-31T11:47:06.687Z,60.50
2019-03-31T11:49:38.882Z,60.15
2019-03-31T11:52:08.757Z,57.53
2019-03-31T11:54:38.509Z,56.25
2019-03-31T11:57:08.315Z,59.00
2019-03-31T11:59:41.442Z,62.55
2019-03-31T12:02:11.222Z,64.00
2019-03-31T12:04:41.476Z,59.27
2019-03-31T12:07:11.457Z,69.32
2019-03-31T12:09:41.357Z,62.88
2019-03-31T12:12:11.908Z,62.27
2019-03-31T12:14:41.804Z,63.15
2019-03-31T12:17:11.613Z,59.35
2019-03-31T12:19:41.443Z,64.55
2019-03-31T12:22:12.617Z,64.03
2019-03-31T12:24:43.473Z,63.63
2019-03-31T12:27:13.623Z,62.62
2019-03-31T12:29:43.458Z,58.13
2019-03-31T12:32:15.658Z,59.23
2019-03-31T12:34:45.453Z,63.45
2019-03-31T12:37:17.703Z,54.60
2019-03-31T12:39:47.585Z,56.05
2019-03-31T12:42:17.473Z,57.30
2019-03-31T12:44:47.254Z,47.13
2019-03-31T12:47:18.532Z,42.00
2019-03-31T12:49:48.355Z,46.90
2019-03-31T12:52:18.174Z,40.40
2019-03-31T12:54:47.894Z,50.52
2019-03-31T12:57:17.774Z,42.15
2019-03-31T12:59:47.931Z,40.55
2019-03-31T13:02:17.853Z,35.08
2019-03-31T13:04:48.538Z,25.95
2019-03-31T13:07:18.344Z,30.48
2019-03-31T13:09:48.194Z,30.97
2019-03-31T13:12:18.348Z,35.08
2019-03-31T13:14:48.220Z,28.17
2019-03-31T13:17:18.125Z,33.38
2019-03-31T13:19:47.972Z,34.40
2019-03-31T13:22:17.770Z,26.05
2019-03-31T13:24:47.646Z,28.25
2019-03-31T13:27:17.494Z,28.67
2019-03-31T13:29:48.042Z,28.20
2019-03-31T13:32:17.835Z,30.75
2019-03-31T13:34:47.654Z,28.75
2019-03-31T13:37:17.471Z,31.20
2019-03-31T13:39:47.290Z,32.35
2019-03-31T13:42:17.046Z,34.10
2019-03-31T13:44:47.005Z,40.20
2019-03-31T13:47:16.865Z,33.95
2019-03-31T13:49:47.647Z,33.90
2019-03-31T13:52:17.540Z,37.90
2019-03-31T13:54:48.515Z,41.02
2019-03-31T13:57:18.618Z,34.75
2019-03-31T13:59:48.632Z,37.85
2019-03-31T14:02:18.461Z,42.98
2019-03-31T14:04:51.878Z,36.25
2019-03-31T14:07:19.763Z,41.08
2019-03-31T14:09:50.020Z,40.67
2019-03-31T14:12:21.207Z,41.28
2019-03-31T14:14:51.975Z,38.20
2019-03-31T14:17:24.465Z,42.65
2019-03-31T14:19:53.558Z,42.70
2019-03-31T14:22:23.398Z,41.60
2019-03-31T14:24:53.099Z,43.70
2019-03-31T14:27:24.070Z,42.27
2019-03-31T14:29:53.825Z,40.45
2019-03-31T14:32:23.689Z,39.92
2019-03-31T14:34:53.555Z,39.83
2019-03-31T14:37:24.193Z,38.90
2019-03-31T14:39:55.263Z,41.35
2019-03-31T14:42:25.499Z,33.78
2019-03-31T14:44:55.289Z,37.85
2019-03-31T14:47:25.099Z,33.90
2019-03-31T14:49:54.963Z,35.52
2019-03-31T14:52:27.565Z,38.92
2019-03-31T14:54:56.274Z,37.93
2019-03-31T14:57:27.430Z,42.88
2019-03-31T14:59:57.245Z,40.43
2019-03-31T15:02:26.962Z,36.03
2019-03-31T15:04:57.133Z,36.50
2019-03-31T15:07:26.939Z,32.70
2019-03-31T15:09:56.749Z,36.15
2019-03-31T15:12:26.588Z,32.15
2019-03-31T15:14:56.374Z,34.23
2019-03-31T15:17:26.194Z,32.13
2019-03-31T15:19:55.993Z,34.43
2019-03-31T15:22:27.009Z,35.85
2019-03-31T15:24:56.787Z,38.45
2019-03-31T15:27:30.000Z,33.60
2019-03-31T15:29:59.824Z,35.88
2019-03-31T15:32:29.715Z,31.82
2019-03-31T15:34:59.520Z,27.90
2019-03-31T15:37:29.393Z,32.80
2019-03-31T15:39:59.217Z,34.38
2019-03-31T15:42:30.602Z,30.40
2019-03-31T15:45:00.460Z,33.20
2019-03-31T15:47:30.338Z,33.73
2019-03-31T15:50:00.493Z,29.18
2019-03-31T15:52:30.448Z,32.33
2019-03-31T15:55:00.384Z,32.67
2019-03-31T15:57:32.735Z,27.15
2019-03-31T16:00:04.991Z,27.13
2019-03-31T16:02:56.659Z,29.05
2019-03-31T16:05:49.624Z,20.82
2019-03-31T16:08:19.763Z,26.42
2019-03-31T16:11:27.270Z,18.40
2019-03-31T16:13:56.956Z,18.27
2019-03-31T16:16:26.282Z,16.37
2019-03-31T16:18:57.030Z,18.85
2019-03-31T16:21:26.574Z,16.50
2019-03-31T16:23:55.893Z,16.60
2019-03-31T16:29:16.257Z,15.25
2019-03-31T16:31:47.487Z,15.30
2019-03-31T16:34:17.178Z,15.03
2019-03-31T16:36:46.536Z,17.32
2019-03-31T16:39:20.208Z,16.07
2019-03-31T16:41:58.771Z,14.93
2019-03-31T16:44:28.431Z,15.10
2019-03-31T16:46:57.910Z,12.47
2019-03-31T16:49:45.542Z,13.10
2019-03-31T16:52:21.889Z,14.80
2019-03-31T16:54:53.212Z,17.23
2019-03-31T16:57:22.466Z,16.90
2019-03-31T16:59:51.741Z,10.88
2019-03-31T17:02:34.435Z,11.50
2019-03-31T17:14:10.583Z,13.60
2019-03-31T17:16:42.057Z,14.78
2019-03-31T17:19:11.665Z,10.68
2019-03-31T17:25:18.281Z,12.23
2019-03-31T17:34:33.308Z,9.90
2019-03-31T17:37:05.006Z,12.50
2019-03-31T17:40:16.884Z,7.47
2019-03-31T17:42:46.428Z,10.90
2019-03-31T17:50:47.842Z,6.53
2019-03-31T17:53:21.706Z,6.70
2019-03-31T18:06:49.744Z,8.60
2019-03-31T18:09:19.781Z,8.15
2019-03-31T18:11:49.090Z,7.53
2019-03-31T18:14:19.165Z,7.83
2019-03-31T18:17:09.926Z,7.80
2019-03-31T18:19:59.345Z,10.30
2019-03-31T18:22:30.344Z,9.23
2019-03-31T18:25:23.023Z,9.20
2019-03-31T18:27:52.414Z,7.25
2019-03-31T18:30:21.774Z,7.50
2019-03-31T18:32:52.019Z,9.50
2019-03-31T18:35:22.901Z,8.85
2019-03-31T18:43:28.077Z,8.23
2019-03-31T18:45:58.029Z,9.85
2019-03-31T18:48:28.807Z,11.18
2019-03-31T18:50:58.053Z,11.57
2019-03-31T18:53:53.230Z,7.80
2019-03-31T18:56:47.544Z,11.28
2019-03-31T18:59:34.630Z,9.73
2019-03-31T19:02:13.624Z,11.22
2019-03-31T19:05:00.659Z,9.15
2019-03-31T19:07:52.187Z,11.43
2019-03-31T19:17:49.332Z,10.80
2019-03-31T19:20:35.213Z,9.88
2019-03-31T19:23:22.105Z,11.93
2019-03-31T19:26:14.669Z,9.10
2019-03-31T19:29:09.326Z,11.40
2019-03-31T19:32:03.542Z,12.23
2019-03-31T19:34:48.514Z,9.23
2019-03-31T19:37:46.832Z,10.15
2019-03-31T19:40:30.663Z,8.65
2019-03-31T19:43:34.558Z,13.43
2019-03-31T19:46:28.101Z,10.53
2019-03-31T19:49:15.042Z,12.13
2019-03-31T19:52:06.336Z,11.05
2019-03-31T19:54:44.847Z,11.22
2019-03-31T19:57:34.160Z,13.32
2019-03-31T20:00:28.509Z,13.43
2019-03-31T20:03:20.003Z,10.65
2019-03-31T20:06:11.169Z,10.23
2019-03-31T20:08:50.962Z,10.88
2019-03-31T20:11:35.480Z,14.58
2019-03-31T20:14:18.807Z,11.15
2019-03-31T20:16:56.329Z,10.88
2019-03-31T20:20:03.053Z,10.55
2019-03-31T20:23:27.915Z,12.47
2019-03-31T20:26:14.688Z,9.48
2019-03-31T20:29:03.283Z,9.90
2019-03-31T20:31:42.594Z,10.13
2019-03-31T20:34:31.080Z,13.90
2019-03-31T20:37:21.144Z,12.15
2019-03-31T20:40:14.034Z,11.28
2019-03-31T20:43:09.897Z,12.20
2019-03-31T20:45:39.238Z,12.05
2019-03-31T20:48:08.829Z,15.00
2019-03-31T20:50:39.976Z,16.02
2019-03-31T20:53:09.242Z,10.78
2019-03-31T20:56:05.065Z,12.10
2019-03-31T20:58:35.135Z,19.82
2019-03-31T21:01:04.529Z,12.13
2019-03-31T21:03:36.779Z,10.80
2019-03-31T21:06:06.085Z,13.72
2019-03-31T21:08:35.264Z,17.37
2019-03-31T21:11:35.860Z,13.78
2019-03-31T21:14:06.819Z,13.85
2019-03-31T21:16:42.634Z,13.05
2019-03-31T21:19:13.243Z,16.73
2019-03-31T21:21:42.585Z,12.10
2019-03-31T21:24:11.999Z,13.48
2019-03-31T21:26:41.258Z,11.18
2019-03-31T21:29:10.592Z,9.25
2019-03-31T21:31:39.899Z,10.55
2019-03-31T21:34:09.389Z,10.53
2019-03-31T21:36:49.084Z,9.15
2019-03-31T21:39:18.619Z,12.45
2019-03-31T21:42:15.010Z,13.38
2019-03-31T21:44:45.907Z,12.20
2019-03-31T21:47:16.497Z,14.05
2019-03-31T21:49:47.553Z,9.00
2019-03-31T21:52:16.814Z,9.83
2019-03-31T21:54:47.555Z,9.78
2019-03-31T21:57:16.809Z,9.15
2019-03-31T21:59:46.021Z,12.82
2019-03-31T22:02:15.418Z,13.88
2019-03-31T22:04:44.993Z,13.53
2019-03-31T22:07:14.473Z,12.35
2019-03-31T22:09:43.667Z,15.08
2019-03-31T22:12:12.923Z,10.25
2019-03-31T22:14:42.191Z,14.70
2019-03-31T22:17:13.645Z,12.10
2019-03-31T22:19:42.886Z,10.10
2019-03-31T22:22:12.127Z,15.00
2019-03-31T22:24:41.403Z,11.25
2019-03-31T22:27:10.659Z,9.90
2019-03-31T22:29:47.848Z,8.88
2019-03-31T22:32:17.133Z,12.95
2019-03-31T22:34:46.382Z,14.93
2019-03-31T22:37:15.654Z,12.90
2019-03-31T22:39:44.929Z,10.70
2019-03-31T22:42:14.196Z,16.55
2019-03-31T22:44:45.818Z,8.70
2019-03-31T22:47:15.169Z,10.15
2019-03-31T22:49:44.363Z,14.87
2019-03-31T22:52:13.605Z,9.80
2019-03-31T22:54:42.872Z,11.25
2019-03-31T22:57:12.120Z,15.23
2019-03-31T22:59:41.366Z,10.18
2019-03-31T23:02:10.670Z,8.55
2019-03-31T23:04:39.951Z,14.03
2019-03-31T23:07:09.175Z,13.13
2019-03-31T23:09:38.421Z,8.53
2019-03-31T23:12:07.654Z,9.70
2019-03-31T23:14:36.926Z,13.20
2019-03-31T23:17:06.262Z,13.05
2019-03-31T23:19:35.516Z,7.15
2019-03-31T23:22:06.636Z,9.68
2019-03-31T23:24:36.181Z,11.43
2019-03-31T23:27:05.482Z,9.63
2019-03-31T23:29:34.731Z,8.48
2019-03-31T23:32:03.982Z,8.80
2019-03-31T23:34:33.123Z,9.68
2019-03-31T23:37:02.398Z,11.12
2019-03-31T23:39:31.662Z,8.30
2019-03-31T23:42:00.946Z,9.35
2019-03-31T23:44:30.206Z,8.13
2019-03-31T23:46:59.459Z,8.33
2019-03-31T23:49:28.723Z,12.53
2019-03-31T23:51:58.006Z,7.83
2019-03-31T23:54:27.278Z,11.08
2019-03-31T23:56:56.538Z,12.00
2019-03-31T23:59:25.797Z,13.10
